Coraopolis, PA

2:16 PM EST on February 01, 2015 (GMT -0500)
Allegheny County | Change Station
CLOSE
Current Station
Airport
Location: Pittsburgh Allegheny Co.,
Elevation: 1253 ft
Nearby Weather Stations

Elev 1253 ft 40.35 °N, 79.92 °W | Updated 23 minutes ago

Snow
Snow
31 °F
Feels Like 24 °F
N
7
Wind Variable Wind from ESE

Today
High -- | Low -- °F
--% Chance of Precip.
Yesterday
High -- | Low -- °F
Precip. -- in
7:30 AM 5:38 PM
Waxing Gibbous, 96% visible
Pressure 30.00 in
Visibility 0.2 miles
Clouds
Windchill 24 °F
Dew Point 27 °F
Humidity 85%
Rainfall 0.10 in
Snow Depth Not available.
UV Not available.
Pollen .10 out of 12
Air Quality Not available.
Flu Activity Not available.
METAR KAGC 011853Z 12006KT 1/4SM R28/1400V2800FT SN FZFG VV002 M01/M03 A2994 RMK AO2 SLP158 P0005 T10061028

More Conditions Fewer Conditions

Pressure 30.00 in
Visibility 0.2 miles
Clouds
Windchill 24 °F
Dew Point 27 °F
Humidity 85%
Rainfall 0.10 in
Snow Depth Not available.
UV Not available.
Pollen .10 out of 12
Air Quality Not available.
Flu Activity Not available.
METAR KAGC 011853Z 12006KT 1/4SM R28/1400V2800FT SN FZFG VV002 M01/M03 A2994 RMK AO2 SLP158 P0005 T10061028

More Conditions Fewer Conditions

10-Day Weather Forecast

Almanac

Astronomy

Feb. 01, 2015 Rise Set
Actual Time
Civil Twilight
Nautical Twilight
Astronomical Twilight
Moon
Length of Visible Light
Length of Day
Tomorrow will be .
, % of the Moon is Illuminated

Today's Extremes

State Highs State Lows

Community

WunderPhotos

Upload Photos

1,792,457 photos uploaded!

WunderBlogs® & News

Nearby

Air Quality

  Air Quality AQ Index Pollutant
Not available.

Snow Depth

Station Depth Elevation

Earthquake Activity

City Distance Mag. Time & Date
Minimum magnitude displayed is 2.5.

Coastal Water Temperatures

Place Temperature

Nearby Weather Stations